sensor_id;sensor_type;location;lat;lon;timestamp;P1;durP1;ratioP1;P2;durP2;ratioP2
43504;SDS011;29098;48.184;16.298;2023-12-07T00:00:47;23.45;;;12.70;;
43504;SDS011;29098;48.184;16.298;2023-12-07T00:03:13;17.90;;;11.75;;
43504;SDS011;29098;48.184;16.298;2023-12-07T00:05:40;20.25;;;11.60;;
43504;SDS011;29098;48.184;16.298;2023-12-07T00:08:08;20.58;;;11.60;;
43504;SDS011;29098;48.184;16.298;2023-12-07T00:10:35;17.88;;;11.02;;
43504;SDS011;29098;48.184;16.298;2023-12-07T00:13:01;17.52;;;11.35;;
43504;SDS011;29098;48.184;16.298;2023-12-07T00:15:26;19.17;;;10.70;;
43504;SDS011;29098;48.184;16.298;2023-12-07T00:17:52;18.30;;;11.25;;
43504;SDS011;29098;48.184;16.298;2023-12-07T00:20:17;17.95;;;9.80;;
43504;SDS011;29098;48.184;16.298;2023-12-07T00:22:43;16.85;;;9.90;;
43504;SDS011;29098;48.184;16.298;2023-12-07T00:25:08;16.38;;;10.13;;
43504;SDS011;29098;48.184;16.298;2023-12-07T00:27:34;18.25;;;10.38;;
43504;SDS011;29098;48.184;16.298;2023-12-07T00:29:59;18.33;;;11.77;;
43504;SDS011;29098;48.184;16.298;2023-12-07T00:32:25;16.85;;;10.02;;
43504;SDS011;29098;48.184;16.298;2023-12-07T00:34:52;14.50;;;9.30;;
43504;SDS011;29098;48.184;16.298;2023-12-07T00:37:17;17.05;;;10.07;;
43504;SDS011;29098;48.184;16.298;2023-12-07T00:39:43;17.20;;;10.57;;
43504;SDS011;29098;48.184;16.298;2023-12-07T00:42:08;16.58;;;10.10;;
43504;SDS011;29098;48.184;16.298;2023-12-07T00:44:38;15.50;;;9.95;;
43504;SDS011;29098;48.184;16.298;2023-12-07T00:47:04;17.27;;;10.65;;
43504;SDS011;29098;48.184;16.298;2023-12-07T00:49:30;16.92;;;10.48;;
43504;SDS011;29098;48.184;16.298;2023-12-07T00:51:55;15.60;;;10.15;;
43504;SDS011;29098;48.184;16.298;2023-12-07T00:54:21;16.00;;;10.00;;
43504;SDS011;29098;48.184;16.298;2023-12-07T00:56:46;16.98;;;9.77;;
43504;SDS011;29098;48.184;16.298;2023-12-07T00:59:12;17.45;;;10.48;;
43504;SDS011;29098;48.184;16.298;2023-12-07T01:01:37;21.13;;;11.77;;
43504;SDS011;29098;48.184;16.298;2023-12-07T01:04:04;18.48;;;11.20;;
43504;SDS011;29098;48.184;16.298;2023-12-07T01:06:30;17.00;;;10.35;;
43504;SDS011;29098;48.184;16.298;2023-12-07T01:08:56;18.77;;;11.68;;
43504;SDS011;29098;48.184;16.298;2023-12-07T01:11:22;16.67;;;10.27;;
43504;SDS011;29098;48.184;16.298;2023-12-07T01:13:47;18.15;;;10.77;;
43504;SDS011;29098;48.184;16.298;2023-12-07T01:16:12;16.27;;;10.18;;
43504;SDS011;29098;48.184;16.298;2023-12-07T01:18:38;17.13;;;10.98;;
43504;SDS011;29098;48.184;16.298;2023-12-07T01:21:04;17.73;;;11.02;;
43504;SDS011;29098;48.184;16.298;2023-12-07T01:23:29;20.15;;;11.38;;
43504;SDS011;29098;48.184;16.298;2023-12-07T01:25:55;16.75;;;10.30;;
43504;SDS011;29098;48.184;16.298;2023-12-07T01:28:20;17.27;;;11.57;;
43504;SDS011;29098;48.184;16.298;2023-12-07T01:30:46;15.95;;;10.23;;
43504;SDS011;29098;48.184;16.298;2023-12-07T01:33:11;20.20;;;11.60;;
43504;SDS011;29098;48.184;16.298;2023-12-07T01:35:37;17.75;;;10.35;;
43504;SDS011;29098;48.184;16.298;2023-12-07T01:38:02;16.55;;;10.35;;
43504;SDS011;29098;48.184;16.298;2023-12-07T01:40:28;17.83;;;10.50;;
43504;SDS011;29098;48.184;16.298;2023-12-07T01:42:54;19.45;;;10.40;;
43504;SDS011;29098;48.184;16.298;2023-12-07T01:45:19;17.02;;;10.93;;
43504;SDS011;29098;48.184;16.298;2023-12-07T01:47:45;18.73;;;11.52;;
43504;SDS011;29098;48.184;16.298;2023-12-07T01:50:12;17.23;;;10.45;;
43504;SDS011;29098;48.184;16.298;2023-12-07T01:52:45;17.98;;;10.05;;
43504;SDS011;29098;48.184;16.298;2023-12-07T01:55:13;15.43;;;10.55;;
43504;SDS011;29098;48.184;16.298;2023-12-07T01:57:39;17.77;;;10.50;;
43504;SDS011;29098;48.184;16.298;2023-12-07T02:00:07;17.10;;;10.02;;
43504;SDS011;29098;48.184;16.298;2023-12-07T02:02:34;18.20;;;10.95;;
43504;SDS011;29098;48.184;16.298;2023-12-07T02:05:00;16.20;;;9.77;;
43504;SDS011;29098;48.184;16.298;2023-12-07T02:07:26;15.73;;;10.18;;
43504;SDS011;29098;48.184;16.298;2023-12-07T02:09:52;16.08;;;10.05;;
43504;SDS011;29098;48.184;16.298;2023-12-07T02:12:18;16.15;;;10.18;;
43504;SDS011;29098;48.184;16.298;2023-12-07T02:14:44;16.05;;;9.68;;
43504;SDS011;29098;48.184;16.298;2023-12-07T02:19:55;18.33;;;10.07;;
43504;SDS011;29098;48.184;16.298;2023-12-07T02:22:33;16.27;;;10.10;;
43504;SDS011;29098;48.184;16.298;2023-12-07T02:25:07;16.23;;;9.18;;
43504;SDS011;29098;48.184;16.298;2023-12-07T02:27:38;14.57;;;9.80;;
43504;SDS011;29098;48.184;16.298;2023-12-07T02:30:08;15.32;;;10.50;;
43504;SDS011;29098;48.184;16.298;2023-12-07T02:32:36;18.25;;;10.70;;
43504;SDS011;29098;48.184;16.298;2023-12-07T02:35:03;17.90;;;9.73;;
43504;SDS011;29098;48.184;16.298;2023-12-07T02:37:31;16.67;;;10.48;;
43504;SDS011;29098;48.184;16.298;2023-12-07T02:40:02;17.00;;;10.32;;
43504;SDS011;29098;48.184;16.298;2023-12-07T02:42:29;18.00;;;10.48;;
43504;SDS011;29098;48.184;16.298;2023-12-07T02:44:56;17.75;;;11.30;;
43504;SDS011;29098;48.184;16.298;2023-12-07T02:47:22;18.17;;;11.45;;
43504;SDS011;29098;48.184;16.298;2023-12-07T02:49:48;18.63;;;10.68;;
43504;SDS011;29098;48.184;16.298;2023-12-07T02:52:13;17.83;;;10.48;;
43504;SDS011;29098;48.184;16.298;2023-12-07T02:54:39;16.70;;;10.70;;
43504;SDS011;29098;48.184;16.298;2023-12-07T02:57:04;17.92;;;10.30;;
43504;SDS011;29098;48.184;16.298;2023-12-07T02:59:30;19.40;;;11.25;;
43504;SDS011;29098;48.184;16.298;2023-12-07T03:01:55;19.13;;;11.00;;
43504;SDS011;29098;48.184;16.298;2023-12-07T03:04:21;17.55;;;10.60;;
43504;SDS011;29098;48.184;16.298;2023-12-07T03:06:46;18.92;;;10.57;;
43504;SDS011;29098;48.184;16.298;2023-12-07T03:09:12;18.35;;;10.88;;
43504;SDS011;29098;48.184;16.298;2023-12-07T03:11:37;18.33;;;10.25;;
43504;SDS011;29098;48.184;16.298;2023-12-07T03:14:03;17.95;;;11.05;;
43504;SDS011;29098;48.184;16.298;2023-12-07T03:16:29;18.98;;;11.95;;
43504;SDS011;29098;48.184;16.298;2023-12-07T03:18:54;19.90;;;11.52;;
43504;SDS011;29098;48.184;16.298;2023-12-07T03:21:20;18.35;;;10.52;;
43504;SDS011;29098;48.184;16.298;2023-12-07T03:23:45;19.75;;;11.57;;
43504;SDS011;29098;48.184;16.298;2023-12-07T03:26:11;17.63;;;11.35;;
43504;SDS011;29098;48.184;16.298;2023-12-07T03:28:36;19.38;;;11.60;;
43504;SDS011;29098;48.184;16.298;2023-12-07T03:31:02;17.85;;;10.95;;
43504;SDS011;29098;48.184;16.298;2023-12-07T03:33:28;19.23;;;10.80;;
43504;SDS011;29098;48.184;16.298;2023-12-07T03:35:53;17.85;;;10.98;;
43504;SDS011;29098;48.184;16.298;2023-12-07T03:38:19;20.40;;;11.40;;
43504;SDS011;29098;48.184;16.298;2023-12-07T03:40:44;20.92;;;12.10;;
43504;SDS011;29098;48.184;16.298;2023-12-07T03:43:12;19.70;;;11.45;;
43504;SDS011;29098;48.184;16.298;2023-12-07T03:45:38;21.48;;;11.52;;
43504;SDS011;29098;48.184;16.298;2023-12-07T03:48:04;18.63;;;10.98;;
43504;SDS011;29098;48.184;16.298;2023-12-07T03:50:29;20.13;;;11.52;;
43504;SDS011;29098;48.184;16.298;2023-12-07T03:52:55;20.13;;;12.05;;
43504;SDS011;29098;48.184;16.298;2023-12-07T03:55:20;18.52;;;12.38;;
43504;SDS011;29098;48.184;16.298;2023-12-07T03:57:45;20.55;;;12.73;;
43504;SDS011;29098;48.184;16.298;2023-12-07T04:00:11;21.48;;;11.90;;
43504;SDS011;29098;48.184;16.298;2023-12-07T04:02:38;19.02;;;10.75;;
43504;SDS011;29098;48.184;16.298;2023-12-07T04:05:03;17.95;;;10.98;;
43504;SDS011;29098;48.184;16.298;2023-12-07T04:07:29;18.88;;;11.02;;
43504;SDS011;29098;48.184;16.298;2023-12-07T04:09:54;18.15;;;11.15;;
43504;SDS011;29098;48.184;16.298;2023-12-07T04:12:21;20.60;;;10.57;;
43504;SDS011;29098;48.184;16.298;2023-12-07T04:14:47;20.30;;;11.48;;
43504;SDS011;29098;48.184;16.298;2023-12-07T04:17:12;19.48;;;11.00;;
43504;SDS011;29098;48.184;16.298;2023-12-07T04:19:38;22.10;;;12.68;;
43504;SDS011;29098;48.184;16.298;2023-12-07T04:22:03;18.65;;;11.48;;
43504;SDS011;29098;48.184;16.298;2023-12-07T04:24:29;19.55;;;10.85;;
43504;SDS011;29098;48.184;16.298;2023-12-07T04:26:54;19.63;;;12.10;;
43504;SDS011;29098;48.184;16.298;2023-12-07T04:29:20;19.65;;;11.35;;
43504;SDS011;29098;48.184;16.298;2023-12-07T04:31:45;19.27;;;11.63;;
43504;SDS011;29098;48.184;16.298;2023-12-07T04:34:11;22.75;;;12.85;;
43504;SDS011;29098;48.184;16.298;2023-12-07T04:36:36;18.23;;;11.48;;
43504;SDS011;29098;48.184;16.298;2023-12-07T04:39:02;18.70;;;10.65;;
43504;SDS011;29098;48.184;16.298;2023-12-07T04:41:28;18.60;;;11.27;;
43504;SDS011;29098;48.184;16.298;2023-12-07T04:43:53;19.33;;;10.93;;
43504;SDS011;29098;48.184;16.298;2023-12-07T04:46:19;19.55;;;10.18;;
43504;SDS011;29098;48.184;16.298;2023-12-07T04:48:44;19.15;;;10.75;;
43504;SDS011;29098;48.184;16.298;2023-12-07T04:51:10;22.45;;;11.38;;
43504;SDS011;29098;48.184;16.298;2023-12-07T04:53:36;19.30;;;11.75;;
43504;SDS011;29098;48.184;16.298;2023-12-07T04:56:01;21.73;;;11.82;;
43504;SDS011;29098;48.184;16.298;2023-12-07T04:58:27;18.50;;;11.05;;
43504;SDS011;29098;48.184;16.298;2023-12-07T05:00:52;22.92;;;12.73;;
43504;SDS011;29098;48.184;16.298;2023-12-07T05:03:18;19.30;;;11.25;;
43504;SDS011;29098;48.184;16.298;2023-12-07T05:05:43;22.13;;;12.65;;
43504;SDS011;29098;48.184;16.298;2023-12-07T05:08:09;19.80;;;11.80;;
43504;SDS011;29098;48.184;16.298;2023-12-07T05:10:35;21.25;;;11.93;;
43504;SDS011;29098;48.184;16.298;2023-12-07T05:13:00;21.85;;;13.15;;
43504;SDS011;29098;48.184;16.298;2023-12-07T05:15:26;20.55;;;12.23;;
43504;SDS011;29098;48.184;16.298;2023-12-07T05:17:51;21.75;;;11.60;;
43504;SDS011;29098;48.184;16.298;2023-12-07T05:20:17;21.45;;;12.68;;
43504;SDS011;29098;48.184;16.298;2023-12-07T05:22:47;22.52;;;13.15;;
43504;SDS011;29098;48.184;16.298;2023-12-07T05:25:12;21.83;;;12.82;;
43504;SDS011;29098;48.184;16.298;2023-12-07T05:27:38;21.15;;;12.45;;
43504;SDS011;29098;48.184;16.298;2023-12-07T05:30:04;24.40;;;12.68;;
43504;SDS011;29098;48.184;16.298;2023-12-07T05:32:29;24.52;;;12.18;;
43504;SDS011;29098;48.184;16.298;2023-12-07T05:34:55;20.35;;;11.77;;
43504;SDS011;29098;48.184;16.298;2023-12-07T05:37:22;23.48;;;12.45;;
43504;SDS011;29098;48.184;16.298;2023-12-07T05:39:47;24.83;;;13.68;;
43504;SDS011;29098;48.184;16.298;2023-12-07T05:42:13;25.60;;;13.60;;
43504;SDS011;29098;48.184;16.298;2023-12-07T05:44:38;21.08;;;11.32;;
43504;SDS011;29098;48.184;16.298;2023-12-07T05:47:03;25.23;;;13.07;;
43504;SDS011;29098;48.184;16.298;2023-12-07T05:49:29;23.55;;;12.98;;
43504;SDS011;29098;48.184;16.298;2023-12-07T05:51:54;23.40;;;11.75;;
43504;SDS011;29098;48.184;16.298;2023-12-07T05:54:20;22.63;;;12.23;;
43504;SDS011;29098;48.184;16.298;2023-12-07T05:56:47;24.67;;;14.27;;
43504;SDS011;29098;48.184;16.298;2023-12-07T05:59:13;21.45;;;12.27;;
43504;SDS011;29098;48.184;16.298;2023-12-07T06:01:38;22.83;;;11.95;;
43504;SDS011;29098;48.184;16.298;2023-12-07T06:04:04;20.75;;;12.13;;
43504;SDS011;29098;48.184;16.298;2023-12-07T06:06:30;22.35;;;12.50;;
43504;SDS011;29098;48.184;16.298;2023-12-07T06:08:56;19.70;;;11.80;;
43504;SDS011;29098;48.184;16.298;2023-12-07T06:11:22;19.75;;;11.88;;
43504;SDS011;29098;48.184;16.298;2023-12-07T06:13:47;22.33;;;12.18;;
43504;SDS011;29098;48.184;16.298;2023-12-07T06:16:12;20.90;;;11.32;;
43504;SDS011;29098;48.184;16.298;2023-12-07T06:18:39;22.98;;;13.88;;
43504;SDS011;29098;48.184;16.298;2023-12-07T06:21:04;21.90;;;13.20;;
43504;SDS011;29098;48.184;16.298;2023-12-07T06:23:30;21.65;;;12.25;;
43504;SDS011;29098;48.184;16.298;2023-12-07T06:25:55;23.30;;;12.45;;
43504;SDS011;29098;48.184;16.298;2023-12-07T06:28:21;21.35;;;11.77;;
43504;SDS011;29098;48.184;16.298;2023-12-07T06:30:46;23.70;;;13.43;;
43504;SDS011;29098;48.184;16.298;2023-12-07T06:33:11;24.00;;;12.80;;
43504;SDS011;29098;48.184;16.298;2023-12-07T06:35:37;19.05;;;12.13;;
43504;SDS011;29098;48.184;16.298;2023-12-07T06:38:03;21.55;;;11.15;;
43504;SDS011;29098;48.184;16.298;2023-12-07T06:40:29;22.50;;;12.25;;
43504;SDS011;29098;48.184;16.298;2023-12-07T06:42:56;22.48;;;12.75;;
43504;SDS011;29098;48.184;16.298;2023-12-07T06:45:22;23.48;;;12.65;;
43504;SDS011;29098;48.184;16.298;2023-12-07T06:47:47;22.60;;;11.52;;
43504;SDS011;29098;48.184;16.298;2023-12-07T06:50:12;23.33;;;11.50;;
43504;SDS011;29098;48.184;16.298;2023-12-07T06:52:38;21.77;;;12.43;;
43504;SDS011;29098;48.184;16.298;2023-12-07T06:55:05;22.23;;;11.70;;
43504;SDS011;29098;48.184;16.298;2023-12-07T06:57:31;19.75;;;11.70;;
43504;SDS011;29098;48.184;16.298;2023-12-07T06:59:58;24.58;;;12.60;;
43504;SDS011;29098;48.184;16.298;2023-12-07T07:02:23;23.42;;;12.70;;
43504;SDS011;29098;48.184;16.298;2023-12-07T07:04:49;23.55;;;11.45;;
43504;SDS011;29098;48.184;16.298;2023-12-07T07:07:15;23.48;;;13.13;;
43504;SDS011;29098;48.184;16.298;2023-12-07T07:09:40;21.55;;;11.38;;
43504;SDS011;29098;48.184;16.298;2023-12-07T07:12:06;21.52;;;12.43;;
43504;SDS011;29098;48.184;16.298;2023-12-07T07:14:32;21.85;;;12.30;;
43504;SDS011;29098;48.184;16.298;2023-12-07T07:16:58;19.50;;;11.18;;
43504;SDS011;29098;48.184;16.298;2023-12-07T07:19:23;23.30;;;12.52;;
43504;SDS011;29098;48.184;16.298;2023-12-07T07:21:48;21.98;;;12.45;;
43504;SDS011;29098;48.184;16.298;2023-12-07T07:24:14;23.75;;;12.80;;
43504;SDS011;29098;48.184;16.298;2023-12-07T07:26:39;27.10;;;12.57;;
43504;SDS011;29098;48.184;16.298;2023-12-07T07:29:05;22.80;;;12.82;;
43504;SDS011;29098;48.184;16.298;2023-12-07T07:31:31;19.05;;;11.00;;
43504;SDS011;29098;48.184;16.298;2023-12-07T07:33:56;23.55;;;12.00;;
43504;SDS011;29098;48.184;16.298;2023-12-07T07:36:22;20.63;;;12.25;;
43504;SDS011;29098;48.184;16.298;2023-12-07T07:38:48;22.48;;;12.60;;
43504;SDS011;29098;48.184;16.298;2023-12-07T07:41:13;24.15;;;12.13;;
43504;SDS011;29098;48.184;16.298;2023-12-07T07:43:39;22.88;;;12.23;;
43504;SDS011;29098;48.184;16.298;2023-12-07T07:46:05;21.48;;;13.02;;
43504;SDS011;29098;48.184;16.298;2023-12-07T07:48:31;20.80;;;11.48;;
43504;SDS011;29098;48.184;16.298;2023-12-07T07:50:56;23.27;;;11.35;;
43504;SDS011;29098;48.184;16.298;2023-12-07T07:53:23;20.48;;;11.00;;
43504;SDS011;29098;48.184;16.298;2023-12-07T07:55:48;21.92;;;11.73;;
43504;SDS011;29098;48.184;16.298;2023-12-07T07:58:14;22.75;;;11.93;;
43504;SDS011;29098;48.184;16.298;2023-12-07T08:00:39;22.35;;;13.27;;
43504;SDS011;29098;48.184;16.298;2023-12-07T08:03:05;19.08;;;11.18;;
43504;SDS011;29098;48.184;16.298;2023-12-07T08:05:30;22.98;;;12.65;;
43504;SDS011;29098;48.184;16.298;2023-12-07T08:07:56;18.80;;;11.52;;
43504;SDS011;29098;48.184;16.298;2023-12-07T08:10:21;23.98;;;12.02;;
43504;SDS011;29098;48.184;16.298;2023-12-07T08:12:46;23.58;;;12.90;;
43504;SDS011;29098;48.184;16.298;2023-12-07T08:15:12;26.08;;;13.73;;
43504;SDS011;29098;48.184;16.298;2023-12-07T08:17:40;24.08;;;13.00;;
43504;SDS011;29098;48.184;16.298;2023-12-07T08:20:09;21.27;;;11.20;;
43504;SDS011;29098;48.184;16.298;2023-12-07T08:22:36;27.00;;;13.95;;
43504;SDS011;29098;48.184;16.298;2023-12-07T08:25:02;23.30;;;12.18;;
43504;SDS011;29098;48.184;16.298;2023-12-07T08:27:31;23.83;;;12.77;;
43504;SDS011;29098;48.184;16.298;2023-12-07T08:29:59;19.70;;;11.75;;
43504;SDS011;29098;48.184;16.298;2023-12-07T08:32:25;21.92;;;12.65;;
43504;SDS011;29098;48.184;16.298;2023-12-07T08:34:51;23.08;;;13.35;;
43504;SDS011;29098;48.184;16.298;2023-12-07T08:37:17;22.30;;;11.52;;
43504;SDS011;29098;48.184;16.298;2023-12-07T08:39:42;20.95;;;12.30;;
43504;SDS011;29098;48.184;16.298;2023-12-07T08:42:08;22.58;;;12.70;;
43504;SDS011;29098;48.184;16.298;2023-12-07T08:44:33;20.25;;;11.55;;
43504;SDS011;29098;48.184;16.298;2023-12-07T08:46:59;24.33;;;12.27;;
43504;SDS011;29098;48.184;16.298;2023-12-07T08:49:24;21.15;;;11.52;;
43504;SDS011;29098;48.184;16.298;2023-12-07T08:51:51;22.55;;;12.65;;
43504;SDS011;29098;48.184;16.298;2023-12-07T08:54:18;23.08;;;12.70;;
43504;SDS011;29098;48.184;16.298;2023-12-07T08:56:44;24.00;;;13.18;;
43504;SDS011;29098;48.184;16.298;2023-12-07T08:59:10;26.95;;;13.48;;
43504;SDS011;29098;48.184;16.298;2023-12-07T09:01:35;21.45;;;12.30;;
43504;SDS011;29098;48.184;16.298;2023-12-07T09:04:00;23.65;;;12.25;;
43504;SDS011;29098;48.184;16.298;2023-12-07T09:06:26;21.98;;;11.95;;
43504;SDS011;29098;48.184;16.298;2023-12-07T09:08:51;21.90;;;12.82;;
43504;SDS011;29098;48.184;16.298;2023-12-07T09:11:17;21.75;;;11.32;;
43504;SDS011;29098;48.184;16.298;2023-12-07T09:13:42;18.50;;;10.88;;
43504;SDS011;29098;48.184;16.298;2023-12-07T09:16:08;20.52;;;12.60;;
43504;SDS011;29098;48.184;16.298;2023-12-07T09:18:33;17.75;;;11.15;;
43504;SDS011;29098;48.184;16.298;2023-12-07T09:21:00;20.70;;;11.30;;
43504;SDS011;29098;48.184;16.298;2023-12-07T09:23:26;20.85;;;11.05;;
43504;SDS011;29098;48.184;16.298;2023-12-07T09:25:51;18.67;;;12.68;;
43504;SDS011;29098;48.184;16.298;2023-12-07T09:28:17;20.38;;;11.27;;
43504;SDS011;29098;48.184;16.298;2023-12-07T09:30:42;20.10;;;11.15;;
43504;SDS011;29098;48.184;16.298;2023-12-07T09:33:09;19.95;;;11.07;;
43504;SDS011;29098;48.184;16.298;2023-12-07T09:35:34;19.33;;;10.90;;
43504;SDS011;29098;48.184;16.298;2023-12-07T09:38:00;18.40;;;10.43;;
43504;SDS011;29098;48.184;16.298;2023-12-07T09:40:25;19.42;;;11.73;;
43504;SDS011;29098;48.184;16.298;2023-12-07T09:42:52;17.50;;;10.45;;
43504;SDS011;29098;48.184;16.298;2023-12-07T09:45:18;20.00;;;10.50;;
43504;SDS011;29098;48.184;16.298;2023-12-07T09:47:49;19.50;;;11.30;;
43504;SDS011;29098;48.184;16.298;2023-12-07T09:50:19;18.25;;;9.85;;
43504;SDS011;29098;48.184;16.298;2023-12-07T09:52:50;21.52;;;11.38;;
43504;SDS011;29098;48.184;16.298;2023-12-07T09:55:17;17.95;;;10.75;;
43504;SDS011;29098;48.184;16.298;2023-12-07T09:57:43;17.45;;;9.98;;
43504;SDS011;29098;48.184;16.298;2023-12-07T10:00:10;20.73;;;11.50;;
43504;SDS011;29098;48.184;16.298;2023-12-07T10:02:39;19.55;;;10.27;;
43504;SDS011;29098;48.184;16.298;2023-12-07T10:05:06;17.35;;;9.98;;
43504;SDS011;29098;48.184;16.298;2023-12-07T10:07:33;21.13;;;11.15;;
43504;SDS011;29098;48.184;16.298;2023-12-07T10:10:08;17.90;;;9.63;;
43504;SDS011;29098;48.184;16.298;2023-12-07T10:12:40;19.25;;;10.43;;
43504;SDS011;29098;48.184;16.298;2023-12-07T10:15:11;22.38;;;12.07;;
43504;SDS011;29098;48.184;16.298;2023-12-07T10:20:23;19.20;;;12.13;;
43504;SDS011;29098;48.184;16.298;2023-12-07T10:23:05;22.70;;;13.10;;
43504;SDS011;29098;48.184;16.298;2023-12-07T10:25:35;22.80;;;11.95;;
43504;SDS011;29098;48.184;16.298;2023-12-07T10:28:01;20.67;;;11.27;;
43504;SDS011;29098;48.184;16.298;2023-12-07T10:30:31;20.42;;;11.48;;
43504;SDS011;29098;48.184;16.298;2023-12-07T10:32:57;18.63;;;11.90;;
43504;SDS011;29098;48.184;16.298;2023-12-07T10:35:23;18.13;;;10.70;;
43504;SDS011;29098;48.184;16.298;2023-12-07T10:37:48;22.88;;;11.85;;
43504;SDS011;29098;48.184;16.298;2023-12-07T10:40:14;16.48;;;10.00;;
43504;SDS011;29098;48.184;16.298;2023-12-07T10:42:40;20.88;;;11.02;;
43504;SDS011;29098;48.184;16.298;2023-12-07T10:45:07;19.80;;;12.15;;
43504;SDS011;29098;48.184;16.298;2023-12-07T10:47:36;19.83;;;11.45;;
43504;SDS011;29098;48.184;16.298;2023-12-07T10:50:06;21.98;;;11.02;;
43504;SDS011;29098;48.184;16.298;2023-12-07T10:52:52;17.75;;;10.35;;
43504;SDS011;29098;48.184;16.298;2023-12-07T10:55:28;16.02;;;9.98;;
43504;SDS011;29098;48.184;16.298;2023-12-07T11:00:21;17.75;;;9.50;;
43504;SDS011;29098;48.184;16.298;2023-12-07T11:02:52;19.63;;;11.23;;
43504;SDS011;29098;48.184;16.298;2023-12-07T11:05:18;18.15;;;10.60;;
43504;SDS011;29098;48.184;16.298;2023-12-07T11:07:52;18.42;;;10.85;;
43504;SDS011;29098;48.184;16.298;2023-12-07T11:13:37;19.55;;;10.55;;
43504;SDS011;29098;48.184;16.298;2023-12-07T11:16:05;18.40;;;10.13;;
43504;SDS011;29098;48.184;16.298;2023-12-07T11:18:30;18.45;;;10.55;;
43504;SDS011;29098;48.184;16.298;2023-12-07T11:20:56;16.73;;;10.23;;
43504;SDS011;29098;48.184;16.298;2023-12-07T11:23:23;17.70;;;10.40;;
43504;SDS011;29098;48.184;16.298;2023-12-07T11:25:49;15.40;;;9.02;;
43504;SDS011;29098;48.184;16.298;2023-12-07T11:28:16;17.73;;;11.93;;
43504;SDS011;29098;48.184;16.298;2023-12-07T11:30:43;18.17;;;11.88;;
43504;SDS011;29098;48.184;16.298;2023-12-07T11:33:10;17.85;;;10.93;;
43504;SDS011;29098;48.184;16.298;2023-12-07T11:38:28;18.10;;;10.85;;
43504;SDS011;29098;48.184;16.298;2023-12-07T11:40:54;20.98;;;11.18;;
43504;SDS011;29098;48.184;16.298;2023-12-07T11:46:00;17.58;;;10.68;;
43504;SDS011;29098;48.184;16.298;2023-12-07T11:48:26;18.38;;;10.82;;
43504;SDS011;29098;48.184;16.298;2023-12-07T11:50:59;17.48;;;11.05;;
43504;SDS011;29098;48.184;16.298;2023-12-07T11:53:26;18.33;;;10.23;;
43504;SDS011;29098;48.184;16.298;2023-12-07T11:55:54;17.20;;;10.32;;
43504;SDS011;29098;48.184;16.298;2023-12-07T11:58:21;18.70;;;10.65;;
43504;SDS011;29098;48.184;16.298;2023-12-07T12:00:46;18.75;;;11.38;;
43504;SDS011;29098;48.184;16.298;2023-12-07T12:03:13;16.17;;;11.35;;
43504;SDS011;29098;48.184;16.298;2023-12-07T12:05:39;21.98;;;10.52;;
43504;SDS011;29098;48.184;16.298;2023-12-07T12:08:05;17.20;;;9.95;;
43504;SDS011;29098;48.184;16.298;2023-12-07T12:10:31;17.48;;;9.52;;
43504;SDS011;29098;48.184;16.298;2023-12-07T12:12:57;18.08;;;11.95;;
43504;SDS011;29098;48.184;16.298;2023-12-07T12:15:22;17.55;;;10.10;;
43504;SDS011;29098;48.184;16.298;2023-12-07T12:17:48;19.83;;;11.73;;
43504;SDS011;29098;48.184;16.298;2023-12-07T12:20:13;20.52;;;10.68;;
43504;SDS011;29098;48.184;16.298;2023-12-07T12:22:43;17.35;;;10.38;;
43504;SDS011;29098;48.184;16.298;2023-12-07T12:25:08;18.45;;;11.13;;
43504;SDS011;29098;48.184;16.298;2023-12-07T12:27:35;20.67;;;11.73;;
43504;SDS011;29098;48.184;16.298;2023-12-07T12:30:01;17.98;;;12.23;;
43504;SDS011;29098;48.184;16.298;2023-12-07T12:32:33;16.85;;;10.10;;
43504;SDS011;29098;48.184;16.298;2023-12-07T12:35:07;20.02;;;11.13;;
43504;SDS011;29098;48.184;16.298;2023-12-07T12:37:33;19.30;;;11.55;;
43504;SDS011;29098;48.184;16.298;2023-12-07T12:40:04;23.77;;;11.55;;
43504;SDS011;29098;48.184;16.298;2023-12-07T12:42:30;20.98;;;11.52;;
43504;SDS011;29098;48.184;16.298;2023-12-07T12:44:56;20.02;;;11.32;;
43504;SDS011;29098;48.184;16.298;2023-12-07T12:47:22;18.63;;;10.32;;
43504;SDS011;29098;48.184;16.298;2023-12-07T12:49:48;26.40;;;12.52;;
43504;SDS011;29098;48.184;16.298;2023-12-07T12:52:16;21.00;;;10.77;;
43504;SDS011;29098;48.184;16.298;2023-12-07T12:54:43;20.08;;;13.10;;
43504;SDS011;29098;48.184;16.298;2023-12-07T12:57:09;20.23;;;11.55;;
43504;SDS011;29098;48.184;16.298;2023-12-07T12:59:35;21.02;;;11.80;;
43504;SDS011;29098;48.184;16.298;2023-12-07T13:02:02;21.25;;;11.95;;
43504;SDS011;29098;48.184;16.298;2023-12-07T13:04:29;21.02;;;12.70;;
43504;SDS011;29098;48.184;16.298;2023-12-07T13:06:55;22.13;;;12.60;;
43504;SDS011;29098;48.184;16.298;2023-12-07T13:09:21;21.02;;;12.30;;
43504;SDS011;29098;48.184;16.298;2023-12-07T13:11:47;24.25;;;12.45;;
43504;SDS011;29098;48.184;16.298;2023-12-07T13:14:12;23.30;;;12.40;;
43504;SDS011;29098;48.184;16.298;2023-12-07T13:16:38;20.40;;;13.07;;
43504;SDS011;29098;48.184;16.298;2023-12-07T13:19:03;22.25;;;12.40;;
43504;SDS011;29098;48.184;16.298;2023-12-07T13:21:29;20.88;;;11.35;;
43504;SDS011;29098;48.184;16.298;2023-12-07T13:23:54;20.00;;;11.63;;
43504;SDS011;29098;48.184;16.298;2023-12-07T13:26:20;20.67;;;12.35;;
43504;SDS011;29098;48.184;16.298;2023-12-07T13:28:48;22.13;;;12.90;;
43504;SDS011;29098;48.184;16.298;2023-12-07T13:31:14;19.30;;;11.55;;
43504;SDS011;29098;48.184;16.298;2023-12-07T13:33:39;24.42;;;14.00;;
43504;SDS011;29098;48.184;16.298;2023-12-07T13:36:06;20.65;;;12.38;;
43504;SDS011;29098;48.184;16.298;2023-12-07T13:38:34;21.63;;;12.35;;
43504;SDS011;29098;48.184;16.298;2023-12-07T13:41:00;22.58;;;12.13;;
43504;SDS011;29098;48.184;16.298;2023-12-07T13:43:27;23.58;;;13.57;;
43504;SDS011;29098;48.184;16.298;2023-12-07T13:45:55;22.48;;;12.50;;
43504;SDS011;29098;48.184;16.298;2023-12-07T13:48:21;22.83;;;13.07;;
43504;SDS011;29098;48.184;16.298;2023-12-07T13:50:47;19.80;;;12.35;;
43504;SDS011;29098;48.184;16.298;2023-12-07T13:53:17;23.80;;;14.32;;
43504;SDS011;29098;48.184;16.298;2023-12-07T13:55:46;22.50;;;12.63;;
43504;SDS011;29098;48.184;16.298;2023-12-07T13:58:12;23.35;;;14.20;;
43504;SDS011;29098;48.184;16.298;2023-12-07T14:00:37;23.33;;;12.88;;
43504;SDS011;29098;48.184;16.298;2023-12-07T14:03:03;22.77;;;12.55;;
43504;SDS011;29098;48.184;16.298;2023-12-07T14:05:31;24.92;;;13.95;;
43504;SDS011;29098;48.184;16.298;2023-12-07T14:07:56;25.92;;;14.52;;
43504;SDS011;29098;48.184;16.298;2023-12-07T14:10:22;22.83;;;12.93;;
43504;SDS011;29098;48.184;16.298;2023-12-07T14:12:48;23.45;;;13.77;;
43504;SDS011;29098;48.184;16.298;2023-12-07T14:15:13;26.08;;;13.32;;
43504;SDS011;29098;48.184;16.298;2023-12-07T14:17:39;22.42;;;12.88;;
43504;SDS011;29098;48.184;16.298;2023-12-07T14:20:04;24.02;;;13.00;;